sensor_id;sensor_type;location;lat;lon;timestamp;temperature;humidity
7646;DHT22;3864;48.180;14.178;2023-05-20T00:01:38;11.30;99.90
7646;DHT22;3864;48.180;14.178;2023-05-20T00:04:06;11.30;99.90
7646;DHT22;3864;48.180;14.178;2023-05-20T00:06:34;11.20;99.90
7646;DHT22;3864;48.180;14.178;2023-05-20T00:09:01;11.20;99.90
7646;DHT22;3864;48.180;14.178;2023-05-20T00:11:32;11.20;99.90
7646;DHT22;3864;48.180;14.178;2023-05-20T00:14:03;11.20;99.90
7646;DHT22;3864;48.180;14.178;2023-05-20T00:16:33;11.20;99.90
7646;DHT22;3864;48.180;14.178;2023-05-20T00:19:03;11.20;99.90
7646;DHT22;3864;48.180;14.178;2023-05-20T00:21:34;11.10;99.90
7646;DHT22;3864;48.180;14.178;2023-05-20T00:24:01;11.10;99.90
7646;DHT22;3864;48.180;14.178;2023-05-20T00:26:29;11.10;99.90
7646;DHT22;3864;48.180;14.178;2023-05-20T00:28:57;11.10;99.90
7646;DHT22;3864;48.180;14.178;2023-05-20T00:31:24;11.20;99.90
7646;DHT22;3864;48.180;14.178;2023-05-20T00:33:54;11.20;99.90
7646;DHT22;3864;48.180;14.178;2023-05-20T00:36:21;11.20;99.90
7646;DHT22;3864;48.180;14.178;2023-05-20T00:38:49;11.10;99.90
7646;DHT22;3864;48.180;14.178;2023-05-20T00:41:16;11.10;99.90
7646;DHT22;3864;48.180;14.178;2023-05-20T00:43:44;11.10;99.90
7646;DHT22;3864;48.180;14.178;2023-05-20T00:46:11;11.10;99.90
7646;DHT22;3864;48.180;14.178;2023-05-20T00:48:41;11.10;99.90
7646;DHT22;3864;48.180;14.178;2023-05-20T00:51:26;11.10;99.90
7646;DHT22;3864;48.180;14.178;2023-05-20T00:54:07;11.10;99.90
7646;DHT22;3864;48.180;14.178;2023-05-20T00:56:36;11.00;99.90
7646;DHT22;3864;48.180;14.178;2023-05-20T00:59:04;11.10;99.90
7646;DHT22;3864;48.180;14.178;2023-05-20T01:01:32;11.10;99.90
7646;DHT22;3864;48.180;14.178;2023-05-20T01:04:03;11.10;99.90
7646;DHT22;3864;48.180;14.178;2023-05-20T01:06:46;11.20;99.90
7646;DHT22;3864;48.180;14.178;2023-05-20T01:09:27;11.20;99.90
7646;DHT22;3864;48.180;14.178;2023-05-20T01:12:02;11.20;99.90
7646;DHT22;3864;48.180;14.178;2023-05-20T01:14:39;11.20;99.90
7646;DHT22;3864;48.180;14.178;2023-05-20T01:17:09;11.10;99.90
7646;DHT22;3864;48.180;14.178;2023-05-20T01:19:40;11.10;99.90
7646;DHT22;3864;48.180;14.178;2023-05-20T01:22:11;11.10;99.90
7646;DHT22;3864;48.180;14.178;2023-05-20T01:24:42;11.10;99.90
7646;DHT22;3864;48.180;14.178;2023-05-20T01:27:10;11.20;99.90
7646;DHT22;3864;48.180;14.178;2023-05-20T01:29:39;11.10;99.90
7646;DHT22;3864;48.180;14.178;2023-05-20T01:32:10;11.10;99.90
7646;DHT22;3864;48.180;14.178;2023-05-20T01:34:38;11.10;99.90
7646;DHT22;3864;48.180;14.178;2023-05-20T01:37:08;11.00;99.90
7646;DHT22;3864;48.180;14.178;2023-05-20T01:39:37;11.00;99.90
7646;DHT22;3864;48.180;14.178;2023-05-20T01:42:08;11.00;99.90
7646;DHT22;3864;48.180;14.178;2023-05-20T01:44:36;11.00;99.90
7646;DHT22;3864;48.180;14.178;2023-05-20T01:47:03;10.90;99.90
7646;DHT22;3864;48.180;14.178;2023-05-20T01:49:31;10.90;99.90
7646;DHT22;3864;48.180;14.178;2023-05-20T01:51:58;11.00;99.90
7646;DHT22;3864;48.180;14.178;2023-05-20T01:54:26;10.90;99.90
7646;DHT22;3864;48.180;14.178;2023-05-20T01:56:54;11.00;99.90
7646;DHT22;3864;48.180;14.178;2023-05-20T01:59:25;11.00;99.90
7646;DHT22;3864;48.180;14.178;2023-05-20T02:01:52;11.00;99.90
7646;DHT22;3864;48.180;14.178;2023-05-20T02:04:21;11.00;99.90
7646;DHT22;3864;48.180;14.178;2023-05-20T02:06:52;11.00;99.90
7646;DHT22;3864;48.180;14.178;2023-05-20T02:09:20;11.00;99.90
7646;DHT22;3864;48.180;14.178;2023-05-20T02:11:50;11.00;99.90
7646;DHT22;3864;48.180;14.178;2023-05-20T02:14:18;11.00;99.90
7646;DHT22;3864;48.180;14.178;2023-05-20T02:16:47;11.10;99.90
7646;DHT22;3864;48.180;14.178;2023-05-20T02:19:14;11.10;99.90
7646;DHT22;3864;48.180;14.178;2023-05-20T02:21:48;11.10;99.90
7646;DHT22;3864;48.180;14.178;2023-05-20T02:24:16;11.20;99.90
7646;DHT22;3864;48.180;14.178;2023-05-20T02:26:45;11.20;99.90
7646;DHT22;3864;48.180;14.178;2023-05-20T02:29:14;11.30;99.90
7646;DHT22;3864;48.180;14.178;2023-05-20T02:31:41;11.30;99.90
7646;DHT22;3864;48.180;14.178;2023-05-20T02:34:10;11.30;99.90
7646;DHT22;3864;48.180;14.178;2023-05-20T02:36:38;11.30;99.90
7646;DHT22;3864;48.180;14.178;2023-05-20T02:39:19;11.20;99.90
7646;DHT22;3864;48.180;14.178;2023-05-20T02:41:47;11.20;99.90
7646;DHT22;3864;48.180;14.178;2023-05-20T02:44:15;11.20;99.90
7646;DHT22;3864;48.180;14.178;2023-05-20T02:46:45;11.20;99.90
7646;DHT22;3864;48.180;14.178;2023-05-20T02:49:14;11.20;99.90
7646;DHT22;3864;48.180;14.178;2023-05-20T02:51:41;11.10;99.90
7646;DHT22;3864;48.180;14.178;2023-05-20T02:54:09;11.10;99.90
7646;DHT22;3864;48.180;14.178;2023-05-20T02:56:55;11.10;99.90
7646;DHT22;3864;48.180;14.178;2023-05-20T02:59:24;11.20;99.90
7646;DHT22;3864;48.180;14.178;2023-05-20T03:02:05;11.20;99.90
7646;DHT22;3864;48.180;14.178;2023-05-20T03:04:50;11.20;99.90
7646;DHT22;3864;48.180;14.178;2023-05-20T03:07:30;11.20;99.90
7646;DHT22;3864;48.180;14.178;2023-05-20T03:10:11;11.20;99.90
7646;DHT22;3864;48.180;14.178;2023-05-20T03:12:48;11.20;99.90
7646;DHT22;3864;48.180;14.178;2023-05-20T03:15:19;11.20;99.90
7646;DHT22;3864;48.180;14.178;2023-05-20T03:18:00;11.20;99.90
7646;DHT22;3864;48.180;14.178;2023-05-20T03:20:35;11.10;99.90
7646;DHT22;3864;48.180;14.178;2023-05-20T03:23:06;11.10;99.90
7646;DHT22;3864;48.180;14.178;2023-05-20T03:25:35;11.00;99.90
7646;DHT22;3864;48.180;14.178;2023-05-20T03:28:07;11.00;99.90
7646;DHT22;3864;48.180;14.178;2023-05-20T03:30:36;11.00;99.90
7646;DHT22;3864;48.180;14.178;2023-05-20T03:33:05;11.00;99.90
7646;DHT22;3864;48.180;14.178;2023-05-20T03:35:48;11.00;99.90
7646;DHT22;3864;48.180;14.178;2023-05-20T03:38:17;11.00;99.90
7646;DHT22;3864;48.180;14.178;2023-05-20T03:40:46;11.00;99.90
7646;DHT22;3864;48.180;14.178;2023-05-20T03:43:26;11.00;99.90
7646;DHT22;3864;48.180;14.178;2023-05-20T03:46:08;11.00;99.90
7646;DHT22;3864;48.180;14.178;2023-05-20T03:48:49;11.00;99.90
7646;DHT22;3864;48.180;14.178;2023-05-20T03:51:39;11.00;99.90
7646;DHT22;3864;48.180;14.178;2023-05-20T03:54:20;11.00;99.90
7646;DHT22;3864;48.180;14.178;2023-05-20T03:56:48;11.00;99.90
7646;DHT22;3864;48.180;14.178;2023-05-20T03:59:23;11.00;99.90
7646;DHT22;3864;48.180;14.178;2023-05-20T04:02:05;11.00;99.90
7646;DHT22;3864;48.180;14.178;2023-05-20T04:04:32;11.00;99.90
7646;DHT22;3864;48.180;14.178;2023-05-20T04:07:03;11.00;99.90
7646;DHT22;3864;48.180;14.178;2023-05-20T04:09:44;11.10;99.90
7646;DHT22;3864;48.180;14.178;2023-05-20T04:12:25;11.10;99.90
7646;DHT22;3864;48.180;14.178;2023-05-20T04:14:57;11.20;99.90
7646;DHT22;3864;48.180;14.178;2023-05-20T04:17:54;11.10;99.90
7646;DHT22;3864;48.180;14.178;2023-05-20T04:20:21;11.20;99.90
7646;DHT22;3864;48.180;14.178;2023-05-20T04:22:49;11.20;99.90
7646;DHT22;3864;48.180;14.178;2023-05-20T04:25:17;11.20;99.90
7646;DHT22;3864;48.180;14.178;2023-05-20T04:27:44;11.30;99.90
7646;DHT22;3864;48.180;14.178;2023-05-20T04:30:12;11.40;99.90
7646;DHT22;3864;48.180;14.178;2023-05-20T04:32:41;11.50;99.90
7646;DHT22;3864;48.180;14.178;2023-05-20T04:35:10;11.50;99.90
7646;DHT22;3864;48.180;14.178;2023-05-20T04:37:40;11.60;99.90
7646;DHT22;3864;48.180;14.178;2023-05-20T04:40:10;11.60;99.90
7646;DHT22;3864;48.180;14.178;2023-05-20T04:42:38;11.70;99.90
7646;DHT22;3864;48.180;14.178;2023-05-20T04:45:06;11.80;99.90
7646;DHT22;3864;48.180;14.178;2023-05-20T04:47:34;11.90;99.90
7646;DHT22;3864;48.180;14.178;2023-05-20T04:50:04;12.00;99.90
7646;DHT22;3864;48.180;14.178;2023-05-20T04:52:37;12.10;99.90
7646;DHT22;3864;48.180;14.178;2023-05-20T04:55:06;12.20;99.90
7646;DHT22;3864;48.180;14.178;2023-05-20T04:57:34;12.30;99.90
7646;DHT22;3864;48.180;14.178;2023-05-20T05:00:05;12.30;99.90
7646;DHT22;3864;48.180;14.178;2023-05-20T05:02:34;12.40;99.90
7646;DHT22;3864;48.180;14.178;2023-05-20T05:05:02;12.50;99.90
7646;DHT22;3864;48.180;14.178;2023-05-20T05:07:29;12.60;99.90
7646;DHT22;3864;48.180;14.178;2023-05-20T05:09:59;12.70;99.90
7646;DHT22;3864;48.180;14.178;2023-05-20T05:12:26;12.80;99.90
7646;DHT22;3864;48.180;14.178;2023-05-20T05:14:54;12.90;99.90
7646;DHT22;3864;48.180;14.178;2023-05-20T05:17:23;13.10;99.90
7646;DHT22;3864;48.180;14.178;2023-05-20T05:19:50;13.40;99.90
7646;DHT22;3864;48.180;14.178;2023-05-20T05:22:18;13.80;99.90
7646;DHT22;3864;48.180;14.178;2023-05-20T05:24:45;14.00;99.90
7646;DHT22;3864;48.180;14.178;2023-05-20T05:27:15;14.10;99.90
7646;DHT22;3864;48.180;14.178;2023-05-20T05:29:43;14.50;99.90
7646;DHT22;3864;48.180;14.178;2023-05-20T05:32:10;14.60;99.90
7646;DHT22;3864;48.180;14.178;2023-05-20T05:34:38;14.40;99.90
7646;DHT22;3864;48.180;14.178;2023-05-20T05:37:05;14.30;99.90
7646;DHT22;3864;48.180;14.178;2023-05-20T05:39:33;14.60;99.90
7646;DHT22;3864;48.180;14.178;2023-05-20T05:42:02;14.70;99.90
7646;DHT22;3864;48.180;14.178;2023-05-20T05:44:32;14.70;99.90
7646;DHT22;3864;48.180;14.178;2023-05-20T05:46:59;15.00;99.90
7646;DHT22;3864;48.180;14.178;2023-05-20T05:49:27;15.50;99.90
7646;DHT22;3864;48.180;14.178;2023-05-20T05:51:54;15.70;99.90
7646;DHT22;3864;48.180;14.178;2023-05-20T05:54:22;15.90;99.90
7646;DHT22;3864;48.180;14.178;2023-05-20T05:56:50;16.20;99.90
7646;DHT22;3864;48.180;14.178;2023-05-20T05:59:18;16.30;99.90
7646;DHT22;3864;48.180;14.178;2023-05-20T06:01:47;16.20;99.90
7646;DHT22;3864;48.180;14.178;2023-05-20T06:04:15;16.20;99.90
7646;DHT22;3864;48.180;14.178;2023-05-20T06:10:18;16.00;99.90
7646;DHT22;3864;48.180;14.178;2023-05-20T06:12:45;16.00;99.90
7646;DHT22;3864;48.180;14.178;2023-05-20T06:15:13;15.80;99.90
7646;DHT22;3864;48.180;14.178;2023-05-20T06:17:42;15.80;99.90
7646;DHT22;3864;48.180;14.178;2023-05-20T06:20:11;16.10;99.90
7646;DHT22;3864;48.180;14.178;2023-05-20T06:22:39;16.40;99.90
7646;DHT22;3864;48.180;14.178;2023-05-20T06:25:07;16.90;99.90
7646;DHT22;3864;48.180;14.178;2023-05-20T06:27:35;17.00;99.90
7646;DHT22;3864;48.180;14.178;2023-05-20T06:30:03;17.30;99.90
7646;DHT22;3864;48.180;14.178;2023-05-20T06:32:31;17.60;99.90
7646;DHT22;3864;48.180;14.178;2023-05-20T06:35:00;17.30;99.90
7646;DHT22;3864;48.180;14.178;2023-05-20T06:37:28;17.40;99.90
7646;DHT22;3864;48.180;14.178;2023-05-20T06:39:55;17.40;99.90
7646;DHT22;3864;48.180;14.178;2023-05-20T06:42:23;17.00;99.90
7646;DHT22;3864;48.180;14.178;2023-05-20T06:44:51;17.50;99.90
7646;DHT22;3864;48.180;14.178;2023-05-20T06:47:19;17.60;99.90
7646;DHT22;3864;48.180;14.178;2023-05-20T06:49:47;17.50;99.90
7646;DHT22;3864;48.180;14.178;2023-05-20T06:52:17;17.40;99.90
7646;DHT22;3864;48.180;14.178;2023-05-20T06:54:44;17.50;99.90
7646;DHT22;3864;48.180;14.178;2023-05-20T06:57:12;17.10;99.90
7646;DHT22;3864;48.180;14.178;2023-05-20T06:59:40;17.20;99.90
7646;DHT22;3864;48.180;14.178;2023-05-20T07:02:08;17.00;99.90
7646;DHT22;3864;48.180;14.178;2023-05-20T07:04:35;17.10;99.90
7646;DHT22;3864;48.180;14.178;2023-05-20T07:07:03;17.00;99.90
7646;DHT22;3864;48.180;14.178;2023-05-20T07:09:32;17.00;99.90
7646;DHT22;3864;48.180;14.178;2023-05-20T07:12:00;17.10;99.90
7646;DHT22;3864;48.180;14.178;2023-05-20T07:14:28;17.30;99.90
7646;DHT22;3864;48.180;14.178;2023-05-20T07:16:56;17.10;99.90
7646;DHT22;3864;48.180;14.178;2023-05-20T07:19:24;16.80;99.90
7646;DHT22;3864;48.180;14.178;2023-05-20T07:21:51;16.80;99.90
7646;DHT22;3864;48.180;14.178;2023-05-20T07:24:19;16.80;99.90
7646;DHT22;3864;48.180;14.178;2023-05-20T07:26:48;16.90;99.90
7646;DHT22;3864;48.180;14.178;2023-05-20T07:29:16;16.80;99.90
7646;DHT22;3864;48.180;14.178;2023-05-20T07:31:44;16.90;99.90
7646;DHT22;3864;48.180;14.178;2023-05-20T07:34:11;17.00;99.90
7646;DHT22;3864;48.180;14.178;2023-05-20T07:36:38;17.10;99.90
7646;DHT22;3864;48.180;14.178;2023-05-20T07:39:06;17.20;99.90
7646;DHT22;3864;48.180;14.178;2023-05-20T07:41:35;17.30;99.90
7646;DHT22;3864;48.180;14.178;2023-05-20T07:44:05;17.50;99.90
7646;DHT22;3864;48.180;14.178;2023-05-20T07:46:33;17.20;99.90
7646;DHT22;3864;48.180;14.178;2023-05-20T07:49:02;17.70;99.90
7646;DHT22;3864;48.180;14.178;2023-05-20T07:51:30;18.50;99.90
7646;DHT22;3864;48.180;14.178;2023-05-20T07:53:57;18.60;99.90
7646;DHT22;3864;48.180;14.178;2023-05-20T07:56:25;19.30;99.90
7646;DHT22;3864;48.180;14.178;2023-05-20T07:58:55;19.90;99.90
7646;DHT22;3864;48.180;14.178;2023-05-20T08:01:25;19.70;99.90
7646;DHT22;3864;48.180;14.178;2023-05-20T08:03:53;19.80;99.90
7646;DHT22;3864;48.180;14.178;2023-05-20T08:06:21;20.50;99.90
7646;DHT22;3864;48.180;14.178;2023-05-20T08:08:49;20.90;99.90
7646;DHT22;3864;48.180;14.178;2023-05-20T08:11:19;20.90;99.90
7646;DHT22;3864;48.180;14.178;2023-05-20T08:13:47;20.70;99.90
7646;DHT22;3864;48.180;14.178;2023-05-20T08:16:14;20.40;99.90
7646;DHT22;3864;48.180;14.178;2023-05-20T08:18:44;20.60;99.90
7646;DHT22;3864;48.180;14.178;2023-05-20T08:21:11;20.20;99.90
7646;DHT22;3864;48.180;14.178;2023-05-20T08:23:40;20.60;99.90
7646;DHT22;3864;48.180;14.178;2023-05-20T08:26:08;20.70;99.90
7646;DHT22;3864;48.180;14.178;2023-05-20T08:28:36;19.80;99.90
7646;DHT22;3864;48.180;14.178;2023-05-20T08:31:04;20.30;99.90
7646;DHT22;3864;48.180;14.178;2023-05-20T08:33:32;20.00;99.90
7646;DHT22;3864;48.180;14.178;2023-05-20T08:36:01;20.00;99.90
7646;DHT22;3864;48.180;14.178;2023-05-20T08:38:29;20.20;99.90
7646;DHT22;3864;48.180;14.178;2023-05-20T08:40:57;20.40;99.90
7646;DHT22;3864;48.180;14.178;2023-05-20T08:43:25;20.70;99.90
7646;DHT22;3864;48.180;14.178;2023-05-20T08:45:55;20.80;99.90
7646;DHT22;3864;48.180;14.178;2023-05-20T08:48:25;21.20;99.90
7646;DHT22;3864;48.180;14.178;2023-05-20T08:50:52;21.40;99.90
7646;DHT22;3864;48.180;14.178;2023-05-20T08:53:26;21.10;99.90
7646;DHT22;3864;48.180;14.178;2023-05-20T08:55:55;21.30;99.90
7646;DHT22;3864;48.180;14.178;2023-05-20T08:58:24;21.80;99.90
7646;DHT22;3864;48.180;14.178;2023-05-20T09:00:52;21.90;99.90
7646;DHT22;3864;48.180;14.178;2023-05-20T09:03:20;22.20;99.90
7646;DHT22;3864;48.180;14.178;2023-05-20T09:05:49;22.00;99.90
7646;DHT22;3864;48.180;14.178;2023-05-20T09:08:17;22.00;99.90
7646;DHT22;3864;48.180;14.178;2023-05-20T09:10:46;22.20;99.90
7646;DHT22;3864;48.180;14.178;2023-05-20T09:13:14;22.50;99.90
7646;DHT22;3864;48.180;14.178;2023-05-20T09:15:44;22.50;99.90
7646;DHT22;3864;48.180;14.178;2023-05-20T09:18:15;23.30;99.90
7646;DHT22;3864;48.180;14.178;2023-05-20T09:20:46;23.50;99.90
7646;DHT22;3864;48.180;14.178;2023-05-20T09:23:14;23.70;99.90
7646;DHT22;3864;48.180;14.178;2023-05-20T09:25:42;23.80;99.90
7646;DHT22;3864;48.180;14.178;2023-05-20T09:28:12;23.90;99.90
7646;DHT22;3864;48.180;14.178;2023-05-20T09:30:40;24.30;99.90
7646;DHT22;3864;48.180;14.178;2023-05-20T09:33:08;23.60;99.90
7646;DHT22;3864;48.180;14.178;2023-05-20T09:35:38;23.90;99.90
7646;DHT22;3864;48.180;14.178;2023-05-20T09:38:06;23.60;99.90
7646;DHT22;3864;48.180;14.178;2023-05-20T09:40:36;23.40;99.90
7646;DHT22;3864;48.180;14.178;2023-05-20T09:43:08;23.90;99.90
7646;DHT22;3864;48.180;14.178;2023-05-20T09:45:38;24.20;99.90
7646;DHT22;3864;48.180;14.178;2023-05-20T09:48:06;24.80;99.90
7646;DHT22;3864;48.180;14.178;2023-05-20T09:50:36;25.40;99.90
7646;DHT22;3864;48.180;14.178;2023-05-20T09:53:04;25.10;99.90
7646;DHT22;3864;48.180;14.178;2023-05-20T09:55:32;25.10;99.90
7646;DHT22;3864;48.180;14.178;2023-05-20T09:58:01;25.10;99.90
7646;DHT22;3864;48.180;14.178;2023-05-20T10:00:29;24.30;99.90
7646;DHT22;3864;48.180;14.178;2023-05-20T10:02:59;24.70;99.90
7646;DHT22;3864;48.180;14.178;2023-05-20T10:05:29;24.70;99.90
7646;DHT22;3864;48.180;14.178;2023-05-20T10:08:24;25.10;99.90
7646;DHT22;3864;48.180;14.178;2023-05-20T10:11:07;25.10;99.90
7646;DHT22;3864;48.180;14.178;2023-05-20T10:13:49;25.40;99.90
7646;DHT22;3864;48.180;14.178;2023-05-20T10:16:28;24.80;99.90
7646;DHT22;3864;48.180;14.178;2023-05-20T10:19:08;24.80;99.90
7646;DHT22;3864;48.180;14.178;2023-05-20T10:21:38;24.60;99.90
7646;DHT22;3864;48.180;14.178;2023-05-20T10:24:06;24.60;99.90
7646;DHT22;3864;48.180;14.178;2023-05-20T10:26:35;24.00;99.90
7646;DHT22;3864;48.180;14.178;2023-05-20T10:29:14;23.50;99.90
7646;DHT22;3864;48.180;14.178;2023-05-20T10:31:47;23.90;99.90
7646;DHT22;3864;48.180;14.178;2023-05-20T10:34:18;24.10;99.90
7646;DHT22;3864;48.180;14.178;2023-05-20T10:36:56;24.40;99.90
7646;DHT22;3864;48.180;14.178;2023-05-20T10:39:25;23.80;99.90
7646;DHT22;3864;48.180;14.178;2023-05-20T10:42:05;23.80;99.90
7646;DHT22;3864;48.180;14.178;2023-05-20T10:44:42;24.00;99.90
7646;DHT22;3864;48.180;14.178;2023-05-20T10:47:10;24.50;99.90
7646;DHT22;3864;48.180;14.178;2023-05-20T10:49:43;24.80;99.90
7646;DHT22;3864;48.180;14.178;2023-05-20T10:52:12;25.00;99.90
7646;DHT22;3864;48.180;14.178;2023-05-20T10:54:43;24.50;99.90
7646;DHT22;3864;48.180;14.178;2023-05-20T10:57:11;24.60;99.90
7646;DHT22;3864;48.180;14.178;2023-05-20T10:59:40;24.80;99.90
7646;DHT22;3864;48.180;14.178;2023-05-20T11:02:09;25.10;99.90
7646;DHT22;3864;48.180;14.178;2023-05-20T11:04:40;25.00;99.90
7646;DHT22;3864;48.180;14.178;2023-05-20T11:07:10;24.20;99.90
7646;DHT22;3864;48.180;14.178;2023-05-20T11:09:38;24.20;99.90
7646;DHT22;3864;48.180;14.178;2023-05-20T11:12:07;24.20;99.90
7646;DHT22;3864;48.180;14.178;2023-05-20T11:14:35;23.90;99.90
7646;DHT22;3864;48.180;14.178;2023-05-20T11:17:03;23.60;99.90
7646;DHT22;3864;48.180;14.178;2023-05-20T11:24:44;23.40;99.90
7646;DHT22;3864;48.180;14.178;2023-05-20T11:27:12;23.40;99.90
7646;DHT22;3864;48.180;14.178;2023-05-20T11:29:40;23.50;99.90
7646;DHT22;3864;48.180;14.178;2023-05-20T11:32:08;23.40;99.90
7646;DHT22;3864;48.180;14.178;2023-05-20T11:34:37;23.30;99.90
7646;DHT22;3864;48.180;14.178;2023-05-20T11:37:06;23.40;99.90
7646;DHT22;3864;48.180;14.178;2023-05-20T11:39:36;23.60;99.90
7646;DHT22;3864;48.180;14.178;2023-05-20T11:42:05;23.70;99.90
7646;DHT22;3864;48.180;14.178;2023-05-20T11:44:33;23.80;99.90
7646;DHT22;3864;48.180;14.178;2023-05-20T11:47:02;23.20;99.90
7646;DHT22;3864;48.180;14.178;2023-05-20T11:49:29;23.50;99.90
7646;DHT22;3864;48.180;14.178;2023-05-20T11:52:08;23.50;99.90
7646;DHT22;3864;48.180;14.178;2023-05-20T11:54:37;23.70;99.90
7646;DHT22;3864;48.180;14.178;2023-05-20T11:57:07;23.90;99.90
7646;DHT22;3864;48.180;14.178;2023-05-20T11:59:36;23.90;99.90
7646;DHT22;3864;48.180;14.178;2023-05-20T12:02:04;23.80;99.90
7646;DHT22;3864;48.180;14.178;2023-05-20T12:04:34;24.10;99.90
7646;DHT22;3864;48.180;14.178;2023-05-20T12:07:02;24.10;99.90
7646;DHT22;3864;48.180;14.178;2023-05-20T12:09:33;24.30;99.90
7646;DHT22;3864;48.180;14.178;2023-05-20T12:12:03;24.60;99.90
7646;DHT22;3864;48.180;14.178;2023-05-20T12:14:33;25.40;99.90
7646;DHT22;3864;48.180;14.178;2023-05-20T12:17:01;26.00;99.90
7646;DHT22;3864;48.180;14.178;2023-05-20T12:19:28;26.20;99.90
7646;DHT22;3864;48.180;14.178;2023-05-20T12:21:56;26.50;99.90
7646;DHT22;3864;48.180;14.178;2023-05-20T12:24:23;26.70;99.90
7646;DHT22;3864;48.180;14.178;2023-05-20T12:26:51;26.80;99.90
7646;DHT22;3864;48.180;14.178;2023-05-20T12:29:18;26.50;99.90
7646;DHT22;3864;48.180;14.178;2023-05-20T12:31:47;26.40;99.90
7646;DHT22;3864;48.180;14.178;2023-05-20T12:34:15;26.10;99.90
7646;DHT22;3864;48.180;14.178;2023-05-20T12:36:56;26.10;99.90
7646;DHT22;3864;48.180;14.178;2023-05-20T12:39:25;26.40;99.90
7646;DHT22;3864;48.180;14.178;2023-05-20T12:42:00;26.20;99.90
7646;DHT22;3864;48.180;14.178;2023-05-20T12:44:32;26.00;99.90
7646;DHT22;3864;48.180;14.178;2023-05-20T12:47:01;25.90;99.90
7646;DHT22;3864;48.180;14.178;2023-05-20T12:49:29;25.50;99.90
7646;DHT22;3864;48.180;14.178;2023-05-20T12:51:56;25.50;99.90
7646;DHT22;3864;48.180;14.178;2023-05-20T12:54:24;25.80;99.90
7646;DHT22;3864;48.180;14.178;2023-05-20T12:56:53;25.90;99.90
7646;DHT22;3864;48.180;14.178;2023-05-20T12:59:21;25.90;99.90
7646;DHT22;3864;48.180;14.178;2023-05-20T13:01:49;26.00;99.90
7646;DHT22;3864;48.180;14.178;2023-05-20T13:04:18;26.00;99.90
7646;DHT22;3864;48.180;14.178;2023-05-20T13:06:45;25.70;99.90
7646;DHT22;3864;48.180;14.178;2023-05-20T13:09:12;25.30;99.90
7646;DHT22;3864;48.180;14.178;2023-05-20T13:11:40;24.90;99.90
7646;DHT22;3864;48.180;14.178;2023-05-20T13:14:07;24.60;99.90
7646;DHT22;3864;48.180;14.178;2023-05-20T13:16:35;24.40;99.90
7646;DHT22;3864;48.180;14.178;2023-05-20T13:19:05;24.20;99.90
7646;DHT22;3864;48.180;14.178;2023-05-20T13:21:34;24.00;99.90
7646;DHT22;3864;48.180;14.178;2023-05-20T13:24:02;23.90;99.90
7646;DHT22;3864;48.180;14.178;2023-05-20T13:26:30;23.80;99.90
7646;DHT22;3864;48.180;14.178;2023-05-20T13:28:57;23.90;99.90
7646;DHT22;3864;48.180;14.178;2023-05-20T13:31:25;23.90;99.90
7646;DHT22;3864;48.180;14.178;2023-05-20T13:33:52;24.10;99.90
7646;DHT22;3864;48.180;14.178;2023-05-20T13:36:20;24.10;99.90
7646;DHT22;3864;48.180;14.178;2023-05-20T13:38:49;24.00;99.90
7646;DHT22;3864;48.180;14.178;2023-05-20T13:41:17;23.80;99.90
7646;DHT22;3864;48.180;14.178;2023-05-20T13:43:44;23.70;99.90
7646;DHT22;3864;48.180;14.178;2023-05-20T13:46:12;23.70;99.90
7646;DHT22;3864;48.180;14.178;2023-05-20T13:48:39;23.70;99.90
7646;DHT22;3864;48.180;14.178;2023-05-20T13:51:07;23.50;99.90
7646;DHT22;3864;48.180;14.178;2023-05-20T13:53:34;23.50;99.90
7646;DHT22;3864;48.180;14.178;2023-05-20T13:56:04;23.40;99.90
7646;DHT22;3864;48.180;14.178;2023-05-20T13:58:34;23.40;99.90
7646;DHT22;3864;48.180;14.178;2023-05-20T14:01:03;23.30;99.90
7646;DHT22;3864;48.180;14.178;2023-05-20T14:03:31;23.20;99.90
7646;DHT22;3864;48.180;14.178;2023-05-20T14:05:59;23.30;99.90
7646;DHT22;3864;48.180;14.178;2023-05-20T14:08:27;23.30;99.90
7646;DHT22;3864;48.180;14.178;2023-05-20T14:10:54;23.40;99.90
7646;DHT22;3864;48.180;14.178;2023-05-20T14:13:28;23.40;99.90
7646;DHT22;3864;48.180;14.178;2023-05-20T14:15:55;23.10;99.90
7646;DHT22;3864;48.180;14.178;2023-05-20T14:18:23;23.30;99.90
7646;DHT22;3864;48.180;14.178;2023-05-20T14:20:51;23.20;99.90
7646;DHT22;3864;48.180;14.178;2023-05-20T14:23:21;23.40;99.90
7646;DHT22;3864;48.180;14.178;2023-05-20T14:25:49;23.20;99.90
7646;DHT22;3864;48.180;14.178;2023-05-20T14:28:17;23.40;99.90
7646;DHT22;3864;48.180;14.178;2023-05-20T14:30:52;23.40;99.90
7646;DHT22;3864;48.180;14.178;2023-05-20T14:33:19;23.50;99.90
7646;DHT22;3864;48.180;14.178;2023-05-20T14:35:47;23.40;99.90
7646;DHT22;3864;48.180;14.178;2023-05-20T14:38:19;23.30;99.90
7646;DHT22;3864;48.180;14.178;2023-05-20T14:40:47;23.30;99.90
7646;DHT22;3864;48.180;14.178;2023-05-20T14:43:15;23.30;99.90
7646;DHT22;3864;48.180;14.178;2023-05-20T14:45:43;23.30;99.90
7646;DHT22;3864;48.180;14.178;2023-05-20T14:48:13;23.20;99.90
7646;DHT22;3864;48.180;14.178;2023-05-20T14:50:42;23.40;99.90
7646;DHT22;3864;48.180;14.178;2023-05-20T14:53:10;23.70;99.90
7646;DHT22;3864;48.180;14.178;2023-05-20T14:55:41;23.60;99.90
7646;DHT22;3864;48.180;14.178;2023-05-20T14:58:09;23.70;99.90
7646;DHT22;3864;48.180;14.178;2023-05-20T15:00:37;23.60;99.90
7646;DHT22;3864;48.180;14.178;2023-05-20T15:03:08;23.70;99.90
7646;DHT22;3864;48.180;14.178;2023-05-20T15:05:38;23.60;99.90
7646;DHT22;3864;48.180;14.178;2023-05-20T15:08:08;23.50;99.90
7646;DHT22;3864;48.180;14.178;2023-05-20T15:10:37;23.50;99.90
7646;DHT22;3864;48.180;14.178;2023-05-20T15:13:05;23.60;99.90
7646;DHT22;3864;48.180;14.178;2023-05-20T15:15:33;23.80;99.90
7646;DHT22;3864;48.180;14.178;2023-05-20T15:18:01;23.50;99.90
7646;DHT22;3864;48.180;14.178;2023-05-20T15:20:29;23.50;99.90
7646;DHT22;3864;48.180;14.178;2023-05-20T15:22:59;23.50;99.90
7646;DHT22;3864;48.180;14.178;2023-05-20T15:25:30;23.50;99.90
7646;DHT22;3864;48.180;14.178;2023-05-20T15:27:58;23.50;99.90
7646;DHT22;3864;48.180;14.178;2023-05-20T15:30:26;23.40;99.90
7646;DHT22;3864;48.180;14.178;2023-05-20T15:32:54;23.30;99.90
7646;DHT22;3864;48.180;14.178;2023-05-20T15:35:22;23.20;99.90
7646;DHT22;3864;48.180;14.178;2023-05-20T15:37:50;23.00;99.90
7646;DHT22;3864;48.180;14.178;2023-05-20T15:40:19;23.00;99.90
7646;DHT22;3864;48.180;14.178;2023-05-20T15:42:48;23.10;99.90
7646;DHT22;3864;48.180;14.178;2023-05-20T15:45:16;23.00;99.90
7646;DHT22;3864;48.180;14.178;2023-05-20T15:47:44;23.00;99.90
7646;DHT22;3864;48.180;14.178;2023-05-20T15:50:12;23.00;99.90
7646;DHT22;3864;48.180;14.178;2023-05-20T15:52:40;22.80;99.90
7646;DHT22;3864;48.180;14.178;2023-05-20T15:55:08;22.80;99.90
7646;DHT22;3864;48.180;14.178;2023-05-20T15:57:39;22.90;99.90
7646;DHT22;3864;48.180;14.178;2023-05-20T16:00:08;23.00;99.90
7646;DHT22;3864;48.180;14.178;2023-05-20T16:02:36;23.20;99.90
7646;DHT22;3864;48.180;14.178;2023-05-20T16:05:05;23.10;99.90
7646;DHT22;3864;48.180;14.178;2023-05-20T16:07:38;23.00;99.90
7646;DHT22;3864;48.180;14.178;2023-05-20T16:10:07;23.10;99.90